Time;durP1;ratioP1;P1;durP2;ratioP2;P2;SDS_P1;SDS_P2;PMS_P1;PMS_P2;Temp;Humidity;BMP_temperature;BMP_pressure;BME280_temperature;BME280_humidity;BME280_pressure;Samples;Min_cycle;Max_cycle;Signal;HPM_P1;HPM_P2
2021/12/22 00:00:15;;;;;;;56.45;22.20;;;;;;;-1.41;100.00;102289.72;5099333;28;20075;-73
2021/12/22 00:02:46;;;;;;;57.05;21.13;;;;;;;-1.46;100.00;102287.03;5094316;28;20039;-72
2021/12/22 00:05:19;;;;;;;58.83;23.73;;;;;;;-1.47;100.00;102292.72;5097949;28;20078;-72
2021/12/22 00:07:45;;;;;;;62.28;25.63;;;;;;;-1.45;100.00;102296.78;5097455;28;20063;-71
2021/12/22 00:10:13;;;;;;;58.88;22.25;;;;;;;-1.50;100.00;102280.53;5098363;28;20135;-71
2021/12/22 00:12:40;;;;;;;54.95;21.35;;;;;;;-1.48;100.00;102286.47;5096072;28;20548;-72
2021/12/22 00:15:08;;;;;;;66.90;22.67;;;;;;;-1.51;100.00;102289.78;5093790;28;20086;-74
2021/12/22 00:17:34;;;;;;;66.10;24.08;;;;;;;-1.50;100.00;102294.13;5093078;28;20131;-73
2021/12/22 00:20:03;;;;;;;59.90;22.77;;;;;;;-1.51;100.00;102291.66;5096354;28;20039;-72
2021/12/22 00:22:30;;;;;;;75.47;22.13;;;;;;;-1.51;100.00;102300.63;5097020;28;20423;-71
2021/12/22 00:24:56;;;;;;;57.90;23.08;;;;;;;-1.52;100.00;102290.84;5076533;28;20545;-71
2021/12/22 00:27:23;;;;;;;65.05;22.83;;;;;;;-1.48;100.00;102294.63;5071959;28;20139;-71
2021/12/22 00:29:51;;;;;;;60.30;21.95;;;;;;;-1.54;100.00;102284.91;5076869;28;20136;-74
2021/12/22 00:32:19;;;;;;;58.55;22.42;;;;;;;-1.49;100.00;102295.72;5074735;28;20195;-73
2021/12/22 00:34:53;;;;;;;64.28;21.23;;;;;;;-1.55;100.00;102296.03;5077399;28;20052;-72
2021/12/22 00:37:22;;;;;;;70.07;22.45;;;;;;;-1.55;100.00;102302.25;5076868;28;20051;-73
2021/12/22 00:39:50;;;;;;;56.53;21.38;;;;;;;-1.57;100.00;102292.78;5077114;28;20055;-73
2021/12/22 00:42:18;;;;;;;56.10;21.77;;;;;;;-1.60;100.00;102296.88;5070076;28;20058;-73
2021/12/22 00:44:47;;;;;;;58.95;21.08;;;;;;;-1.60;100.00;102301.47;5077180;28;20062;-73
2021/12/22 00:47:14;;;;;;;53.47;20.77;;;;;;;-1.68;100.00;102288.50;5072852;28;20127;-72
2021/12/22 00:49:40;;;;;;;61.20;22.23;;;;;;;-1.67;100.00;102287.41;5067748;28;20059;-73
2021/12/22 00:52:07;;;;;;;54.58;20.55;;;;;;;-1.67;100.00;102285.50;5075530;28;20131;-71
2021/12/22 00:54:33;;;;;;;59.53;22.73;;;;;;;-1.68;100.00;102291.22;5083858;28;20052;-71
2021/12/22 00:57:06;;;;;;;52.67;20.95;;;;;;;-1.65;100.00;102296.88;5068365;28;20052;-75
2021/12/22 00:59:36;;;;;;;57.03;21.38;;;;;;;-1.67;100.00;102296.34;5068426;28;20049;-71
2021/12/22 01:02:05;;;;;;;67.18;22.40;;;;;;;-1.68;100.00;102291.22;5071841;28;20048;-72
2021/12/22 01:04:32;;;;;;;53.45;19.85;;;;;;;-1.68;100.00;102296.63;5079193;28;20044;-71
2021/12/22 01:06:59;;;;;;;55.65;21.60;;;;;;;-1.67;100.00;102288.22;5067962;28;20164;-72
2021/12/22 01:09:25;;;;;;;56.58;21.08;;;;;;;-1.69;100.00;102286.88;5072047;28;20131;-73
2021/12/22 01:11:52;;;;;;;61.17;21.27;;;;;;;-1.72;100.00;102285.50;5068043;28;20128;-72
2021/12/22 01:14:21;;;;;;;54.50;20.83;;;;;;;-1.73;100.00;102285.78;5073243;28;20052;-73
2021/12/22 01:16:50;;;;;;;53.30;19.55;;;;;;;-1.74;100.00;102285.00;5081163;28;20052;-71
2021/12/22 01:19:25;;;;;;;49.97;20.08;;;;;;;-1.73;100.00;102289.31;5073070;28;20127;-73
2021/12/22 01:22:02;;;;;;;53.13;20.00;;;;;;;-1.74;100.00;102292.31;5069848;28;20428;-71
2021/12/22 01:24:32;;;;;;;56.35;20.90;;;;;;;-1.76;100.00;102289.09;5085105;28;20048;-72
2021/12/22 01:27:08;;;;;;;49.90;20.08;;;;;;;-1.74;100.00;102298.56;5075701;28;20149;-72
2021/12/22 01:29:37;;;;;;;57.47;20.05;;;;;;;-1.81;100.00;102292.63;5080006;28;20048;-73
2021/12/22 01:32:08;;;;;;;55.75;20.42;;;;;;;-1.83;100.00;102292.06;5066600;28;20138;-72
2021/12/22 01:34:35;;;;;;;52.25;19.40;;;;;;;-1.79;100.00;102295.84;5069683;28;20080;-72
2021/12/22 01:37:02;;;;;;;58.90;22.40;;;;;;;-1.79;100.00;102304.00;5075564;28;20135;-73
2021/12/22 01:39:28;;;;;;;61.97;23.23;;;;;;;-1.82;100.00;102292.91;5073362;28;20049;-73
2021/12/22 01:41:56;;;;;;;59.63;22.20;;;;;;;-1.83;100.00;102289.34;5077146;28;20128;-73
2021/12/22 01:44:28;;;;;;;63.65;21.73;;;;;;;-1.78;100.00;102305.63;5083785;28;20444;-74
2021/12/22 01:49:49;;;;;;;49.83;20.55;;;;;;;-1.78;100.00;102302.09;5070672;28;20083;-73
2021/12/22 01:52:18;;;;;;;60.00;21.63;;;;;;;-1.79;100.00;102311.34;5079040;28;20071;-72
2021/12/22 01:55:02;;;;;;;57.80;20.55;;;;;;;-1.77;100.00;102306.44;5074248;28;20075;-72
2021/12/22 01:57:31;;;;;;;41.28;17.08;;;;;;;-1.77;100.00;102301.81;5076972;28;20381;-73
2021/12/22 02:00:00;;;;;;;52.78;19.83;;;;;;;-1.85;100.00;102296.16;5080521;28;20482;-72
2021/12/22 02:02:28;;;;;;;48.17;17.20;;;;;;;-1.85;100.00;102302.41;5077291;28;20127;-74
2021/12/22 02:04:55;;;;;;;57.85;21.90;;;;;;;-1.86;100.00;102300.75;5080224;28;20106;-76
2021/12/22 02:07:22;;;;;;;49.03;20.92;;;;;;;-1.88;100.00;102305.66;5077295;28;20059;-72
2021/12/22 02:10:03;;;;;;;46.63;20.02;;;;;;;-1.85;100.00;102307.84;5074041;28;20512;-72
2021/12/22 02:12:34;;;;;;;55.08;20.15;;;;;;;-1.85;100.00;102313.25;5070483;28;20078;-74
2021/12/22 02:15:03;;;;;;;54.20;21.38;;;;;;;-1.96;100.00;102300.78;5074856;28;20140;-73
2021/12/22 02:17:30;;;;;;;68.60;21.67;;;;;;;-1.98;100.00;102302.97;5077146;28;20093;-74
2021/12/22 02:19:56;;;;;;;42.30;18.60;;;;;;;-1.98;100.00;102305.69;5070639;28;20040;-73
2021/12/22 02:22:25;;;;;;;45.03;19.17;;;;;;;-2.04;100.00;102301.38;5069355;28;20643;-74
2021/12/22 02:24:57;;;;;;;55.95;21.92;;;;;;;-1.96;100.00;102314.34;5084979;28;20056;-73
2021/12/22 02:27:37;;;;;;;42.05;18.05;;;;;;;-1.98;100.00;102302.97;5088883;28;20163;-73
2021/12/22 02:30:06;;;;;;;46.95;19.13;;;;;;;-1.95;100.00;102307.88;5071399;28;20397;-72
2021/12/22 02:35:15;;;;;;;50.65;21.27;;;;;;;-2.01;100.00;102284.53;5080002;28;20539;-72
2021/12/22 02:37:44;;;;;;;54.90;21.73;;;;;;;-1.97;100.00;102284.78;5075045;28;20135;-73
2021/12/22 02:40:16;;;;;;;48.60;18.50;;;;;;;-2.01;100.00;102287.25;5071944;28;20044;-72
2021/12/22 02:42:46;;;;;;;52.35;20.30;;;;;;;-2.07;100.00;102285.63;5068245;28;20048;-73
2021/12/22 02:45:17;;;;;;;48.40;20.60;;;;;;;-2.09;100.00;102276.97;5068297;28;20049;-74
2021/12/22 02:47:43;;;;;;;50.35;20.77;;;;;;;-2.06;100.00;102281.81;5071609;28;20066;-72
2021/12/22 02:50:12;;;;;;;51.20;21.80;;;;;;;-2.07;100.00;102288.34;5076981;28;20048;-73
2021/12/22 02:53:26;;;;;;;52.35;19.27;;;;;;;-2.10;100.00;102280.75;5076198;28;20091;-73
2021/12/22 02:55:40;;;;;;;42.55;16.45;;;;;;;-2.13;100.00;102289.44;5070696;28;20050;-73
2021/12/22 02:58:08;;;;;;;44.30;17.70;;;;;;;-2.14;100.00;102292.44;5074148;28;20507;-73
2021/12/22 03:01:07;;;;;;;49.53;20.20;;;;;;;-2.17;100.00;102277.53;5075924;28;20199;-73
2021/12/22 03:03:44;;;;;;;;;;;;;;;;;;;;;
2021/12/22 03:05:54;;;;;;;50.08;21.23;;;;;;;-2.23;100.00;102284.03;5087332;28;20146;-70
2021/12/22 03:08:20;;;;;;;43.70;16.25;;;;;;;-2.22;100.00;102280.25;5069861;28;20091;-72
2021/12/22 03:10:51;;;;;;;58.75;21.80;;;;;;;-2.28;100.00;102278.66;5070481;28;20067;-71
2021/12/22 03:13:20;;;;;;;48.88;20.20;;;;;;;-2.30;100.00;102274.59;5074369;28;20044;-74
2021/12/22 03:15:47;;;;;;;48.67;19.83;;;;;;;-2.30;100.00;102278.09;5079043;28;20139;-71
2021/12/22 03:18:13;;;;;;;48.38;21.50;;;;;;;-2.27;100.00;102290.31;5074777;28;20048;-72
2021/12/22 03:20:41;;;;;;;43.50;19.83;;;;;;;-2.31;100.00;102298.16;5077992;28;20135;-72
2021/12/22 03:23:08;;;;;;;53.10;21.02;;;;;;;-2.35;100.00;102274.56;5068931;28;20052;-72
2021/12/22 03:25:34;;;;;;;54.83;21.10;;;;;;;-2.32;100.00;102287.59;5070248;28;20110;-74
2021/12/22 03:28:03;;;;;;;50.67;20.20;;;;;;;-2.36;100.00;102294.66;5071729;28;20048;-72
2021/12/22 03:30:31;;;;;;;47.03;19.25;;;;;;;-2.37;100.00;102287.63;5076035;28;20102;-72
2021/12/22 03:32:58;;;;;;;53.08;20.60;;;;;;;-2.42;100.00;102285.72;5068241;28;20053;-71
2021/12/22 03:35:25;;;;;;;51.58;21.60;;;;;;;-2.46;100.00;102287.34;5072229;28;20052;-71
2021/12/22 03:37:55;;;;;;;54.20;20.83;;;;;;;-2.48;100.00;102278.66;5070276;28;20139;-72
2021/12/22 03:40:24;;;;;;;60.38;22.33;;;;;;;-2.47;100.00;102280.28;5074033;28;20060;-71
2021/12/22 03:42:50;;;;;;;56.88;22.10;;;;;;;-2.45;100.00;102280.84;5070676;28;20071;-72
2021/12/22 03:45:18;;;;;;;57.03;22.50;;;;;;;-2.43;100.00;102275.94;5077564;28;20136;-72
2021/12/22 03:47:45;;;;;;;55.30;20.70;;;;;;;-2.40;100.00;102282.72;5070604;28;20143;-73
2021/12/22 03:50:15;;;;;;;60.97;22.88;;;;;;;-2.42;100.00;102272.16;5086316;28;20044;-71
2021/12/22 03:52:41;;;;;;;65.43;23.98;;;;;;;-2.39;100.00;102277.03;5077308;28;20131;-71
2021/12/22 03:55:09;;;;;;;60.78;22.42;;;;;;;-2.40;100.00;102275.41;5069124;28;20739;-71
2021/12/22 03:57:36;;;;;;;59.75;20.98;;;;;;;-2.39;100.00;102282.47;5078720;28;20054;-70
2021/12/22 04:00:06;;;;;;;45.28;17.83;;;;;;;-2.39;100.00;102287.88;5070093;28;20054;-71
2021/12/22 04:02:33;;;;;;;59.03;22.45;;;;;;;-2.41;100.00;102287.34;5076270;28;20048;-69
2021/12/22 04:05:00;;;;;;;59.83;22.23;;;;;;;-2.40;100.00;102288.16;5075909;28;20128;-70
2021/12/22 04:07:27;;;;;;;68.32;24.38;;;;;;;-2.41;100.00;102286.50;5068991;28;20054;-70
2021/12/22 04:09:53;;;;;;;71.70;25.05;;;;;;;-2.44;100.00;102285.16;5069976;28;20048;-71
2021/12/22 04:12:20;;;;;;;67.00;24.55;;;;;;;-2.48;100.00;102280.56;5069357;28;20056;-71
2021/12/22 04:14:46;;;;;;;67.13;24.08;;;;;;;-2.49;100.00;102279.75;5083573;28;20044;-71
2021/12/22 04:17:13;;;;;;;69.13;25.67;;;;;;;-2.49;100.00;102278.94;5068288;28;20052;-72
2021/12/22 04:19:39;;;;;;;70.45;25.63;;;;;;;-2.54;100.00;102285.16;5068968;28;20139;-73
2021/12/22 04:22:06;;;;;;;65.60;23.50;;;;;;;-2.56;100.00;102283.81;5068516;28;20056;-73
2021/12/22 04:24:33;;;;;;;75.25;26.75;;;;;;;-2.57;100.00;102293.84;5068714;28;20048;-71
2021/12/22 04:27:00;;;;;;;72.45;25.63;;;;;;;-2.56;100.00;102295.50;5072935;28;20058;-71
2021/12/22 04:29:26;;;;;;;77.38;27.77;;;;;;;-2.53;100.00;102297.66;5084068;28;20179;-70
2021/12/22 04:31:53;;;;;;;72.57;25.65;;;;;;;-2.54;100.00;102290.59;5066453;28;20210;-71
2021/12/22 04:34:19;;;;;;;77.18;27.67;;;;;;;-2.54;100.00;102284.38;5071218;28;20322;-71
2021/12/22 04:36:46;;;;;;;87.68;27.25;;;;;;;-2.52;100.00;102295.75;5078284;28;20144;-72
2021/12/22 04:39:12;;;;;;;72.32;26.88;;;;;;;-2.52;100.00;102296.56;5067768;28;20148;-71
2021/12/22 04:41:39;;;;;;;83.30;26.70;;;;;;;-2.52;100.00;102290.31;5069009;28;20083;-73
2021/12/22 04:44:06;;;;;;;66.35;23.52;;;;;;;-2.53;100.00;102291.41;5066218;28;20432;-71
2021/12/22 04:46:33;;;;;;;82.68;29.02;;;;;;;-2.55;100.00;102297.09;5069588;28;20396;-73
2021/12/22 04:49:00;;;;;;;81.15;25.50;;;;;;;-2.56;100.00;102287.34;5077666;28;20055;-72
2021/12/22 04:51:30;;;;;;;84.13;29.13;;;;;;;-2.54;100.00;102296.00;5073132;28;20080;-72
2021/12/22 04:54:18;;;;;;;89.85;28.00;;;;;;;-2.55;100.00;102288.97;5066651;28;20056;-70
2021/12/22 04:56:45;;;;;;;76.75;24.88;;;;;;;-2.56;100.00;102290.06;5067418;28;20142;-71
2021/12/22 04:59:12;;;;;;;81.25;25.23;;;;;;;-2.60;100.00;102288.16;5068224;28;20128;-71
2021/12/22 05:01:38;;;;;;;80.20;26.88;;;;;;;-2.60;100.00;102305.22;5069477;28;20135;-72
2021/12/22 05:04:05;;;;;;;73.25;26.92;;;;;;;-2.62;100.00;102299.28;5076959;28;20082;-70
2021/12/22 05:06:34;;;;;;;77.38;26.65;;;;;;;-2.63;100.00;102290.31;5073341;28;20147;-72
2021/12/22 05:09:02;;;;;;;75.72;27.55;;;;;;;-2.65;100.00;102291.69;5074559;28;20080;-72
2021/12/22 05:11:29;;;;;;;82.05;28.73;;;;;;;-2.64;100.00;102287.88;5067077;28;20178;-71
2021/12/22 05:13:55;;;;;;;66.00;23.35;;;;;;;-2.64;100.00;102282.47;5067653;28;20063;-71
2021/12/22 05:16:22;;;;;;;79.80;26.48;;;;;;;-2.66;100.00;102280.03;5079851;28;20064;-71
2021/12/22 05:21:22;;;;;;;73.10;27.48;;;;;;;-2.70;100.00;102278.16;5066735;28;20045;-71
2021/12/22 05:23:49;;;;;;;73.53;27.33;;;;;;;-2.71;100.00;102276.50;5073458;28;20465;-71
2021/12/22 05:26:16;;;;;;;70.63;27.02;;;;;;;-2.71;100.00;102277.34;5070523;28;20063;-71
2021/12/22 05:28:43;;;;;;;71.75;25.30;;;;;;;-2.69;100.00;102274.34;5076736;28;20048;-71
2021/12/22 05:31:10;;;;;;;69.60;23.80;;;;;;;-2.70;100.00;102273.53;5080427;28;20477;-72
2021/12/22 05:33:36;;;;;;;72.05;24.33;;;;;;;-2.70;100.00;102270.81;5067975;28;20070;-73
2021/12/22 05:36:04;;;;;;;67.25;28.63;;;;;;;-2.71;100.00;102279.22;5077997;28;20045;-75
2021/12/22 05:38:30;;;;;;;65.85;24.17;;;;;;;-2.72;100.00;102274.91;5077435;28;20239;-71
2021/12/22 05:40:57;;;;;;;63.17;23.48;;;;;;;-2.75;100.00;102268.13;5068707;28;20076;-71
2021/12/22 05:43:24;;;;;;;57.67;21.65;;;;;;;-2.75;100.00;102276.25;5066704;28;20136;-71
2021/12/22 05:45:50;;;;;;;66.63;25.38;;;;;;;-2.76;100.00;102271.09;5077710;28;20493;-71
2021/12/22 05:48:20;;;;;;;60.25;22.15;;;;;;;-2.74;100.00;102263.50;5080876;28;20047;-73
2021/12/22 05:50:50;;;;;;;61.47;24.27;;;;;;;-2.75;100.00;102261.88;5066413;28;20049;-71
2021/12/22 05:53:17;;;;;;;72.75;22.50;;;;;;;-2.79;100.00;102258.91;5067873;28;20108;-77
2021/12/22 05:55:44;;;;;;;65.63;23.92;;;;;;;-2.81;100.00;102242.13;5067220;28;20052;-71
2021/12/22 05:58:10;;;;;;;67.22;24.75;;;;;;;-2.87;100.00;102231.56;5071681;28;20048;-71
2021/12/22 06:00:37;;;;;;;72.35;24.48;;;;;;;-2.81;100.00;102238.59;5067389;28;20098;-71
2021/12/22 06:03:04;;;;;;;63.65;22.48;;;;;;;-2.84;100.00;102239.13;5078568;28;20071;-72
2021/12/22 06:05:30;;;;;;;59.85;23.17;;;;;;;-2.85;100.00;102234.78;5077328;28;20053;-71
2021/12/22 06:07:57;;;;;;;61.60;22.38;;;;;;;-2.88;100.00;102243.47;5081052;28;20385;-74
2021/12/22 06:10:24;;;;;;;53.38;21.75;;;;;;;-2.89;100.00;102241.84;5087566;28;20054;-71
2021/12/22 06:12:50;;;;;;;55.58;22.42;;;;;;;-2.89;100.00;102244.56;5074517;28;20052;-72
2021/12/22 06:15:17;;;;;;;64.53;25.50;;;;;;;-2.88;100.00;102243.47;5065209;28;20057;-72
2021/12/22 06:17:43;;;;;;;51.22;19.98;;;;;;;-2.86;100.00;102235.88;5067195;28;20156;-69
2021/12/22 06:20:10;;;;;;;55.25;23.92;;;;;;;-2.88;100.00;102240.75;5070116;28;20043;-71
2021/12/22 06:22:37;;;;;;;56.38;24.02;;;;;;;-2.86;100.00;102241.31;5084746;28;20620;-70
2021/12/22 06:25:04;;;;;;;66.15;25.08;;;;;;;-2.90;100.00;102235.59;5070835;28;20128;-71
2021/12/22 06:27:31;;;;;;;63.85;25.20;;;;;;;-2.90;100.00;102227.47;5070256;28;20519;-73
2021/12/22 06:29:57;;;;;;;67.18;24.60;;;;;;;-2.92;100.00;102236.97;5089104;28;20051;-72
2021/12/22 06:32:24;;;;;;;63.03;23.58;;;;;;;-2.91;100.00;102228.56;5078985;28;20052;-71
2021/12/22 06:34:50;;;;;;;62.20;25.33;;;;;;;-2.90;100.00;102241.03;5069062;28;20052;-71
2021/12/22 06:37:17;;;;;;;59.85;21.77;;;;;;;-2.90;100.00;102234.81;5075006;28;20054;-71
2021/12/22 06:39:43;;;;;;;55.15;21.80;;;;;;;-2.93;100.00;102238.06;5075973;28;20055;-71
2021/12/22 06:42:10;;;;;;;69.53;24.45;;;;;;;-2.92;100.00;102235.09;5067836;28;20579;-71
2021/12/22 06:44:36;;;;;;;73.95;24.40;;;;;;;-2.95;100.00;102223.97;5080482;28;20052;-71
2021/12/22 06:47:03;;;;;;;77.57;26.75;;;;;;;-2.98;100.00;102222.63;5084773;28;20078;-73
2021/12/22 06:49:30;;;;;;;69.38;27.20;;;;;;;-2.95;100.00;102221.25;5078076;28;20087;-71
2021/12/22 06:51:56;;;;;;;72.00;27.65;;;;;;;-2.91;100.00;102225.03;5082879;28;20052;-71
2021/12/22 06:54:23;;;;;;;75.63;26.60;;;;;;;-2.97;100.00;102216.09;5078528;28;20420;-71
2021/12/22 06:56:49;;;;;;;75.82;28.10;;;;;;;-3.00;100.00;102219.34;5069788;28;20052;-72
2021/12/22 06:59:16;;;;;;;84.13;28.00;;;;;;;-2.97;100.00;102220.72;5069847;28;20084;-72
2021/12/22 07:01:43;;;;;;;77.15;27.20;;;;;;;-2.98;100.00;102221.78;5078311;28;20045;-71
2021/12/22 07:04:09;;;;;;;67.55;25.15;;;;;;;-3.00;100.00;102215.84;5077066;28;20052;-72
2021/12/22 07:06:36;;;;;;;84.57;29.77;;;;;;;-3.01;100.00;102216.91;5075123;28;20134;-70
2021/12/22 07:09:05;;;;;;;77.97;28.88;;;;;;;-3.02;100.00;102208.00;5071540;28;20078;-71
2021/12/22 07:11:36;;;;;;;92.93;29.02;;;;;;;-3.01;100.00;102206.09;5072779;28;20498;-70
2021/12/22 07:14:06;;;;;;;80.60;28.55;;;;;;;-3.01;100.00;102208.78;5069382;28;20394;-71
2021/12/22 07:16:33;;;;;;;87.38;29.17;;;;;;;-3.04;100.00;102206.63;5069421;28;20057;-70
2021/12/22 07:19:01;;;;;;;81.60;27.48;;;;;;;-3.10;100.00;102200.41;5068401;28;20048;-70
2021/12/22 07:21:28;;;;;;;68.65;25.58;;;;;;;-3.07;100.00;102204.47;5067880;28;20592;-71
2021/12/22 07:23:55;;;;;;;75.88;27.75;;;;;;;-3.06;100.00;102212.34;5068858;28;20052;-72
2021/12/22 07:26:22;;;;;;;85.65;31.30;;;;;;;-3.07;100.00;102207.19;5070824;28;20072;-72
2021/12/22 07:28:49;;;;;;;86.70;30.63;;;;;;;-3.09;100.00;102212.06;5068286;28;20044;-71
2021/12/22 07:31:17;;;;;;;80.60;28.95;;;;;;;-3.07;100.00;102210.69;5067751;28;20821;-72
2021/12/22 07:33:56;;;;;;;85.50;29.30;;;;;;;-3.04;100.00;102220.16;5067569;28;20098;-72
2021/12/22 07:36:22;;;;;;;86.32;32.83;;;;;;;-3.05;100.00;102226.66;5072678;28;20045;-71
2021/12/22 07:39:00;;;;;;;83.38;28.23;;;;;;;-3.05;100.00;102227.50;5078250;28;20052;-71
2021/12/22 07:41:27;;;;;;;76.88;26.40;;;;;;;-3.03;100.00;102230.72;5079171;28;20064;-72
2021/12/22 07:43:54;;;;;;;84.28;30.27;;;;;;;-3.02;100.00;102234.25;5072359;28;20067;-72
2021/12/22 07:46:20;;;;;;;78.65;28.90;;;;;;;-3.04;100.00;102225.56;5071542;28;20048;-70
2021/12/22 07:48:47;;;;;;;82.93;32.17;;;;;;;-3.03;100.00;102227.22;5071020;28;20135;-71
2021/12/22 07:51:14;;;;;;;88.22;29.10;;;;;;;-3.02;100.00;102226.97;5082390;28;20068;-70
2021/12/22 07:53:40;;;;;;;100.35;37.72;;;;;;;-3.04;100.00;102239.13;5075377;28;20156;-72
2021/12/22 07:56:07;;;;;;;102.97;30.58;;;;;;;-3.04;100.00;102239.94;5070288;28;20044;-71
2021/12/22 07:58:33;;;;;;;87.75;29.90;;;;;;;-3.04;100.00;102234.53;5067874;28;20072;-70
2021/12/22 08:01:00;;;;;;;101.18;33.10;;;;;;;-2.99;100.00;102237.25;5067423;28;20156;-73
2021/12/22 08:03:27;;;;;;;99.55;34.35;;;;;;;-2.96;100.00;102242.09;5082130;28;20052;-71
2021/12/22 08:06:14;;;;;;;81.97;28.80;;;;;;;-2.97;100.00;102239.69;5067798;28;20059;-71
2021/12/22 08:08:41;;;;;;;77.10;28.63;;;;;;;-2.98;100.00;102238.03;5074536;28;20044;-71
2021/12/22 08:11:07;;;;;;;86.00;34.50;;;;;;;-2.95;100.00;102232.09;5067732;28;20566;-72
2021/12/22 08:13:34;;;;;;;85.97;29.55;;;;;;;-2.94;100.00;102228.28;5076269;28;20073;-71
2021/12/22 08:16:01;;;;;;;74.82;27.83;;;;;;;-2.89;100.00;102236.44;5086455;28;20045;-72
2021/12/22 08:18:28;;;;;;;75.97;27.98;;;;;;;-2.87;100.00;102234.28;5074868;28;20431;-72
2021/12/22 08:20:55;;;;;;;75.38;27.80;;;;;;;-2.86;100.00;102244.03;5074402;28;20597;-70
2021/12/22 08:23:21;;;;;;;80.25;29.23;;;;;;;-2.82;100.00;102232.38;5066756;28;20072;-73
2021/12/22 08:25:48;;;;;;;65.45;24.65;;;;;;;-2.77;100.00;102235.06;5083391;28;20154;-71
2021/12/22 08:28:15;;;;;;;64.47;25.52;;;;;;;-2.74;100.00;102237.22;5085731;28;20131;-71
2021/12/22 08:30:42;;;;;;;66.78;27.05;;;;;;;-2.71;100.00;102236.69;5072725;28;20076;-73
2021/12/22 08:33:19;;;;;;;62.10;24.92;;;;;;;-2.69;100.00;102229.09;5071238;28;20460;-72
2021/12/22 08:38:50;;;;;;;65.53;26.15;;;;;;;-2.56;100.00;102224.19;5070590;28;20127;-73
2021/12/22 08:41:18;;;;;;;63.10;25.30;;;;;;;-2.52;100.00;102226.09;5075678;28;20068;-71
2021/12/22 08:43:49;;;;;;;72.38;31.45;;;;;;;-2.48;100.00;102224.47;5080066;28;20060;-70
2021/12/22 08:46:16;;;;;;;58.10;24.15;;;;;;;-2.45;100.00;102221.19;5076307;28;20098;-73
2021/12/22 08:48:43;;;;;;;66.88;26.05;;;;;;;-2.38;100.00;102221.72;5070755;28;21108;-70
2021/12/22 08:51:10;;;;;;;61.03;24.40;;;;;;;-2.34;100.00;102219.25;5071093;28;20125;-73
2021/12/22 08:53:37;;;;;;;58.45;24.52;;;;;;;-2.27;100.00;102217.91;5078219;28;20048;-71
2021/12/22 08:56:04;;;;;;;60.35;23.40;;;;;;;-2.20;100.00;102220.34;5068765;28;20088;-71
2021/12/22 08:58:31;;;;;;;60.47;24.00;;;;;;;-2.14;100.00;102214.59;5068324;28;20071;-72
2021/12/22 09:00:58;;;;;;;49.90;21.67;;;;;;;-2.06;100.00;102216.72;5073696;28;20539;-69
2021/12/22 09:03:25;;;;;;;55.97;23.50;;;;;;;-2.00;100.00;102212.91;5082020;28;20044;-72
2021/12/22 09:05:53;;;;;;;58.28;21.65;;;;;;;-1.92;100.00;102209.66;5076759;28;20154;-71
2021/12/22 09:08:19;;;;;;;53.60;21.95;;;;;;;-1.89;100.00;102211.78;5074030;28;20547;-71
2021/12/22 09:10:46;;;;;;;49.10;21.52;;;;;;;-1.82;100.00;102215.00;5067657;28;20076;-72
2021/12/22 09:13:15;;;;;;;46.13;19.98;;;;;;;-1.76;100.00;102218.53;5066708;28;20136;-70
2021/12/22 09:15:41;;;;;;;55.55;21.92;;;;;;;-1.71;100.00;102210.34;5069346;28;20079;-73
2021/12/22 09:18:08;;;;;;;50.55;23.50;;;;;;;-1.64;100.00;102213.56;5073059;28;20063;-71
2021/12/22 09:20:35;;;;;;;58.88;21.75;;;;;;;-1.55;100.00;102211.88;5074759;28;20163;-72
2021/12/22 09:23:01;;;;;;;45.40;19.90;;;;;;;-1.52;100.00;102214.03;5067045;28;20152;-72
2021/12/22 09:25:28;;;;;;;51.47;20.65;;;;;;;-1.39;100.00;102214.22;5067259;28;20501;-72
2021/12/22 09:27:55;;;;;;;47.30;19.30;;;;;;;-1.30;100.00;102217.97;5071450;28;20534;-72
2021/12/22 09:30:22;;;;;;;48.83;19.83;;;;;;;-1.22;100.00;102209.22;5069368;28;20044;-73
2021/12/22 09:32:49;;;;;;;47.15;20.63;;;;;;;-1.20;100.00;102206.22;5071735;28;20053;-71
2021/12/22 09:35:15;;;;;;;45.58;19.35;;;;;;;-1.13;100.00;102198.56;5065080;28;20072;-73
2021/12/22 09:37:42;;;;;;;47.53;20.08;;;;;;;-1.07;100.00;102209.13;5065192;28;20131;-73
2021/12/22 09:40:09;;;;;;;43.80;20.08;;;;;;;-0.98;100.00;102204.69;5070347;28;20218;-71
2021/12/22 09:42:35;;;;;;;42.28;18.98;;;;;;;-0.91;100.00;102213.31;5082510;28;20067;-72
2021/12/22 09:45:03;;;;;;;47.78;20.10;;;;;;;-0.84;100.00;102219.22;5073911;28;20068;-71
2021/12/22 09:47:37;;;;;;;49.20;20.23;;;;;;;-0.78;100.00;102206.41;5066814;28;20264;-72
2021/12/22 09:52:31;;;;;;;45.63;19.70;;;;;;;-0.64;100.00;102202.72;5070311;28;20054;-71
2021/12/22 09:55:00;;;;;;;46.25;19.42;;;;;;;-0.58;100.00;102201.59;5070646;28;20044;-71
2021/12/22 09:57:29;;;;;;;40.50;18.73;;;;;;;-0.46;100.00;102201.19;5077280;28;20132;-72
2021/12/22 09:59:57;;;;;;;47.58;20.05;;;;;;;-0.35;100.00;102197.28;5069504;28;21921;-71
2021/12/22 10:02:28;;;;;;;44.78;19.20;;;;;;;-0.26;100.00;102187.38;5069262;28;20060;-71
2021/12/22 10:05:00;;;;;;;44.53;18.58;;;;;;;-0.13;100.00;102197.56;5078937;28;20045;-72
2021/12/22 10:07:36;;;;;;;47.03;19.25;;;;;;;0.01;100.00;102196.56;5069443;28;20137;-73
2021/12/22 10:10:10;;;;;;;42.58;20.08;;;;;;;0.18;100.00;102192.53;5070783;28;20153;-72
2021/12/22 10:12:39;;;;;;;42.63;19.33;;;;;;;0.31;100.00;102183.66;5074646;28;20556;-73
2021/12/22 10:15:07;;;;;;;39.58;17.98;;;;;;;0.43;100.00;102187.56;5070629;28;20513;-73
2021/12/22 10:17:43;;;;;;;43.25;20.48;;;;;;;0.58;100.00;102181.09;5061246;28;20179;-73
2021/12/22 10:20:12;;;;;;;42.35;18.27;;;;;;;0.78;100.00;102178.06;5079266;28;20124;-73
2021/12/22 10:22:43;;;;;;;40.65;20.02;;;;;;;0.99;100.00;102188.34;5072040;28;20146;-71
2021/12/22 10:25:17;;;;;;;37.10;17.95;;;;;;;1.20;100.00;102199.69;5067707;28;20063;-75
2021/12/22 10:27:57;;;;;;;42.97;18.50;;;;;;;1.30;100.00;102185.88;5069882;28;20052;-72
2021/12/22 10:30:36;;;;;;;45.17;19.00;;;;;;;1.35;100.00;102177.63;5069773;28;20752;-73
2021/12/22 10:33:24;;;;;;;44.88;17.73;;;;;;;1.53;100.00;102180.28;5079093;28;20058;-72
2021/12/22 10:36:00;;;;;;;39.10;17.52;;;;;;;1.75;100.00;102183.13;5064072;28;20665;-74
2021/12/22 10:38:31;;;;;;;39.40;19.42;;;;;;;1.94;100.00;102181.09;5070958;28;20142;-72
2021/12/22 10:41:02;;;;;;;39.95;17.40;;;;;;;2.13;100.00;102181.78;5077052;28;20135;-73
2021/12/22 10:43:31;;;;;;;38.50;16.98;;;;;;;2.25;100.00;102176.59;5084310;28;20146;-73
2021/12/22 10:46:01;;;;;;;50.08;22.63;;;;;;;2.42;100.00;102170.47;5073140;28;20052;-73
2021/12/22 10:51:37;;;;;;;35.17;15.95;;;;;;;3.32;100.00;102151.84;5068669;28;20084;-72
2021/12/22 10:54:12;;;;;;;39.35;17.40;;;;;;;4.83;100.00;102161.88;5068680;28;20106;-73
2021/12/22 10:56:43;;;;;;;42.58;17.77;;;;;;;6.56;96.22;102157.75;5072786;28;20052;-72
2021/12/22 10:59:19;;;;;;;39.28;17.80;;;;;;;7.90;84.55;102155.81;5074937;28;20052;-76
2021/12/22 11:01:48;;;;;;;34.17;16.80;;;;;;;8.54;78.83;102155.06;5075145;28;20146;-72
2021/12/22 11:04:21;;;;;;;37.97;17.30;;;;;;;9.21;76.52;102157.81;5073399;28;20052;-73
2021/12/22 11:06:50;;;;;;;35.03;16.35;;;;;;;10.07;70.08;102146.59;5070700;28;20473;-72
2021/12/22 11:09:18;;;;;;;34.92;16.52;;;;;;;10.50;63.39;102141.66;5067351;28;20056;-72
2021/12/22 11:11:56;;;;;;;31.27;15.25;;;;;;;10.34;64.92;102145.66;5068255;28;20076;-72
2021/12/22 11:14:26;;;;;;;29.65;15.68;;;;;;;10.96;64.45;102150.13;5069687;28;20162;-70
2021/12/22 11:17:00;;;;;;;32.67;16.08;;;;;;;11.33;61.26;102151.25;5074763;28;20048;-71
2021/12/22 11:19:36;;;;;;;34.28;16.17;;;;;;;11.50;59.94;102150.75;5066254;28;20056;-72
2021/12/22 11:22:15;;;;;;;27.27;14.50;;;;;;;11.79;60.10;102139.03;5071403;28;20066;-74
2021/12/22 11:24:52;;;;;;;30.35;15.45;;;;;;;12.36;59.30;102136.72;5071982;28;20130;-74
2021/12/22 11:27:27;;;;;;;28.80;15.07;;;;;;;12.63;54.75;102131.94;5080396;28;20058;-73